Time;durP1;ratioP1;P1;durP2;ratioP2;P2;SDS_P1;SDS_P2;PMS_P1;PMS_P2;Temp;Humidity;BMP_temperature;BMP_pressure;BME280_temperature;BME280_humidity;BME280_pressure;Samples;Min_cycle;Max_cycle;Signal;HPM_P1;HPM_P2
2021/01/14 00:00:46;;;;;;;8.93;4.50;;;2.10;99.90;;;;;;5141386;27;20498;-61
2021/01/14 00:03:14;;;;;;;5.00;4.50;;;2.10;99.90;;;;;;5140495;27;20432;-62
2021/01/14 00:06:07;;;;;;;8.30;5.50;;;2.10;99.90;;;;;;5137572;27;20517;-61
2021/01/14 00:08:35;;;;;;;7.40;5.60;;;2.10;99.90;;;;;;5137132;27;20439;-62
2021/01/14 00:11:03;;;;;;;7.83;5.67;;;2.10;99.90;;;;;;5137544;27;20430;-61
2021/01/14 00:13:31;;;;;;;7.30;4.73;;;2.10;99.90;;;;;;5137665;27;20518;-62
2021/01/14 00:15:59;;;;;;;12.40;5.87;;;2.20;99.90;;;;;;5136998;27;20484;-61
2021/01/14 00:18:26;;;;;;;6.73;5.43;;;2.10;99.90;;;;;;5138485;27;20433;-62
2021/01/14 00:20:54;;;;;;;8.30;5.33;;;2.20;99.90;;;;;;5120202;27;20526;-63
2021/01/14 00:23:21;;;;;;;7.83;5.70;;;2.20;99.90;;;;;;5138414;27;20942;-61
2021/01/14 00:25:48;;;;;;;8.13;5.77;;;2.20;99.90;;;;;;5138825;27;20423;-61
2021/01/14 00:28:20;;;;;;;7.37;4.97;;;2.30;99.90;;;;;;5138224;27;20534;-61
2021/01/14 00:30:48;;;;;;;7.30;5.80;;;2.30;99.90;;;;;;5137061;27;20942;-61
2021/01/14 00:33:15;;;;;;;21.93;6.90;;;2.30;99.90;;;;;;5138207;27;20434;-61
2021/01/14 00:35:42;;;;;;;10.40;5.80;;;2.40;99.90;;;;;;5138372;27;20427;-61
2021/01/14 00:38:10;;;;;;;8.87;5.50;;;2.40;99.90;;;;;;5137351;27;20441;-61
2021/01/14 00:40:38;;;;;;;14.10;7.23;;;2.40;99.90;;;;;;5136810;27;20561;-62
2021/01/14 00:43:08;;;;;;;7.40;6.17;;;2.40;99.90;;;;;;5136483;27;20472;-61
2021/01/14 00:45:36;;;;;;;7.43;5.23;;;2.40;99.90;;;;;;5135228;27;20503;-61
2021/01/14 00:48:06;;;;;;;8.33;5.23;;;2.40;99.90;;;;;;5135183;27;20466;-61
2021/01/14 00:50:33;;;;;;;8.67;6.47;;;2.40;99.90;;;;;;5136339;27;20506;-61
2021/01/14 00:53:01;;;;;;;19.53;7.20;;;2.50;99.90;;;;;;5135878;27;20427;-63
2021/01/14 00:55:28;;;;;;;7.40;5.30;;;2.50;99.90;;;;;;5118093;27;20482;-61
2021/01/14 00:58:21;;;;;;;7.90;5.83;;;2.50;99.90;;;;;;5135669;27;20442;-61
2021/01/14 01:00:48;;;;;;;7.03;5.20;;;2.60;99.90;;;;;;5135237;27;20470;-61
2021/01/14 01:03:16;;;;;;;6.20;4.73;;;2.60;99.90;;;;;;5135557;27;20437;-61
2021/01/14 01:06:11;;;;;;;7.33;5.33;;;2.60;99.90;;;;;;5135530;27;20513;-62
2021/01/14 01:08:39;;;;;;;7.40;4.70;;;2.60;99.90;;;;;;5135609;27;20483;-62
2021/01/14 01:11:07;;;;;;;6.47;4.90;;;2.60;99.90;;;;;;5135393;27;20445;-61
2021/01/14 01:13:34;;;;;;;8.67;5.83;;;2.60;99.90;;;;;;5135232;27;20458;-61
2021/01/14 01:16:02;;;;;;;7.83;4.83;;;2.60;99.90;;;;;;5133863;27;20439;-64
2021/01/14 01:18:30;;;;;;;8.23;5.43;;;2.60;99.90;;;;;;5135434;27;20477;-61
2021/01/14 01:20:58;;;;;;;6.83;5.40;;;2.60;99.90;;;;;;5128732;27;20544;-61
2021/01/14 01:23:25;;;;;;;6.73;5.23;;;2.60;99.90;;;;;;5136053;27;20427;-61
2021/01/14 01:25:52;;;;;;;5.93;4.80;;;2.60;99.90;;;;;;5135408;27;20454;-61
2021/01/14 01:28:20;;;;;;;13.90;6.20;;;2.60;99.90;;;;;;5135116;27;20433;-63
2021/01/14 01:30:47;;;;;;;5.37;4.87;;;2.60;99.90;;;;;;5134302;27;20439;-61
2021/01/14 01:33:15;;;;;;;7.87;6.07;;;2.60;99.90;;;;;;5135383;27;20458;-61
2021/01/14 01:35:43;;;;;;;6.27;5.40;;;2.60;99.90;;;;;;5134945;27;20442;-61
2021/01/14 01:38:10;;;;;;;7.63;5.07;;;2.60;99.90;;;;;;5135143;27;20435;-61
2021/01/14 01:40:37;;;;;;;9.10;5.90;;;2.60;99.90;;;;;;5134078;27;20466;-61
2021/01/14 01:43:05;;;;;;;12.83;6.40;;;2.60;99.90;;;;;;5134741;27;20437;-61
2021/01/14 01:45:33;;;;;;;9.03;5.30;;;2.60;99.90;;;;;;5134405;27;20439;-62
2021/01/14 01:48:01;;;;;;;5.63;4.60;;;2.60;99.90;;;;;;5116988;27;20469;-61
2021/01/14 01:50:28;;;;;;;11.10;6.93;;;2.60;99.90;;;;;;5151000;27;20434;-62
2021/01/14 01:55:51;;;;;;;5.90;4.10;;;2.40;99.90;;;;;;5116636;28;20439;-61
2021/01/14 01:58:21;;;;;;;4.87;3.37;;;2.00;99.90;;;;;;5135286;27;20434;-61
2021/01/14 02:00:49;;;;;;;4.17;2.53;;;1.50;99.90;;;;;;5137309;27;20474;-61
2021/01/14 02:03:16;;;;;;;4.50;2.07;;;1.30;99.90;;;;;;5148420;27;20522;-60
2021/01/14 02:06:10;;;;;;;4.90;1.70;;;1.20;99.90;;;;;;5134607;28;20442;-61
2021/01/14 02:08:48;;;;;;;3.70;1.70;;;1.20;99.90;;;;;;5135467;28;20499;-61
2021/01/14 02:11:26;;;;;;;4.30;2.80;;;1.20;99.90;;;;;;5134609;28;20549;-61
2021/01/14 02:14:13;;;;;;;7.13;3.50;;;1.20;99.90;;;;;;5134612;28;20435;-61
2021/01/14 02:16:43;;;;;;;4.40;3.50;;;1.30;99.90;;;;;;5134172;28;20477;-62
2021/01/14 02:19:23;;;;;;;8.00;5.33;;;1.30;99.90;;;;;;5134675;28;20442;-61
2021/01/14 02:21:56;;;;;;;6.30;3.83;;;1.30;99.90;;;;;;5134532;28;20431;-61
2021/01/14 02:24:32;;;;;;;5.50;4.10;;;1.40;99.90;;;;;;5134106;28;20430;-61
2021/01/14 02:27:01;;;;;;;6.10;3.97;;;1.40;99.90;;;;;;5134422;28;20947;-61
2021/01/14 02:29:29;;;;;;;9.53;4.63;;;1.40;99.90;;;;;;5134607;28;20480;-61
2021/01/14 02:31:56;;;;;;;6.40;3.27;;;1.50;99.90;;;;;;5133619;28;20474;-61
2021/01/14 02:34:23;;;;;;;3.30;2.80;;;1.50;99.90;;;;;;5134038;28;20431;-61
2021/01/14 02:36:50;;;;;;;4.57;3.60;;;1.50;99.90;;;;;;5134369;28;20446;-61
2021/01/14 02:39:17;;;;;;;6.90;3.17;;;1.50;99.90;;;;;;5133884;28;20423;-61
2021/01/14 02:41:44;;;;;;;4.90;2.73;;;1.40;99.90;;;;;;5134111;28;20431;-61
2021/01/14 02:44:12;;;;;;;4.57;2.97;;;1.40;99.90;;;;;;5115398;28;20944;-61
2021/01/14 02:46:40;;;;;;;4.67;2.90;;;1.40;99.90;;;;;;5132711;28;20468;-62
2021/01/14 02:49:09;;;;;;;4.93;2.70;;;1.40;99.90;;;;;;5134287;28;20427;-64
2021/01/14 02:51:41;;;;;;;3.40;3.00;;;1.30;99.90;;;;;;5134442;28;20435;-61
2021/01/14 02:54:10;;;;;;;8.90;2.80;;;1.30;99.90;;;;;;5135926;27;20466;-61
2021/01/14 02:56:40;;;;;;;3.77;2.80;;;1.40;99.90;;;;;;5137947;27;20434;-61
2021/01/14 02:59:09;;;;;;;3.47;2.70;;;1.40;99.90;;;;;;5137763;27;20429;-61
2021/01/14 03:01:38;;;;;;;4.57;3.03;;;1.30;99.90;;;;;;5136759;27;20496;-61
2021/01/14 03:04:08;;;;;;;4.87;3.13;;;1.30;99.90;;;;;;5119630;27;20496;-64
2021/01/14 03:06:36;;;;;;;7.37;4.20;;;1.20;99.90;;;;;;5137708;27;20441;-61
2021/01/14 03:09:05;;;;;;;6.13;2.37;;;1.20;99.90;;;;;;5137902;27;20776;-61
2021/01/14 03:11:35;;;;;;;2.50;2.20;;;1.20;99.90;;;;;;5143936;27;20435;-61
2021/01/14 03:14:02;;;;;;;3.20;2.90;;;1.20;99.90;;;;;;5157124;27;20435;-64
2021/01/14 03:16:29;;;;;;;4.77;2.40;;;1.20;99.90;;;;;;5142626;27;21060;-64
2021/01/14 03:18:58;;;;;;;2.47;2.10;;;1.20;99.90;;;;;;5138315;27;20439;-61
2021/01/14 03:21:26;;;;;;;3.40;1.53;;;1.20;99.90;;;;;;5135630;27;20540;-61
2021/01/14 03:23:54;;;;;;;2.10;1.90;;;1.20;99.90;;;;;;5137007;27;20465;-61
2021/01/14 03:26:21;;;;;;;2.03;1.50;;;1.10;99.90;;;;;;5136842;27;20435;-61
2021/01/14 03:28:49;;;;;;;4.33;1.40;;;1.10;99.90;;;;;;5136906;27;20452;-61
2021/01/14 03:31:18;;;;;;;1.33;1.23;;;1.00;99.90;;;;;;5136231;27;20839;-61
2021/01/14 03:33:46;;;;;;;2.60;1.50;;;1.00;99.90;;;;;;5136848;27;20922;-64
2021/01/14 03:36:17;;;;;;;2.73;1.33;;;1.10;99.90;;;;;;5137614;27;20507;-61
2021/01/14 03:38:45;;;;;;;3.10;1.00;;;1.10;99.90;;;;;;5146985;27;20434;-61
2021/01/14 03:41:13;;;;;;;3.10;1.40;;;1.00;99.90;;;;;;5144294;27;20463;-63
2021/01/14 03:43:41;;;;;;;8.10;1.53;;;1.00;99.90;;;;;;5137403;27;20433;-61
2021/01/14 03:46:10;;;;;;;1.50;1.17;;;1.10;99.90;;;;;;5136016;27;20477;-62
2021/01/14 03:48:41;;;;;;;4.60;1.10;;;1.00;99.90;;;;;;5136718;27;20422;-61
2021/01/14 03:51:20;;;;;;;2.23;1.53;;;1.00;99.90;;;;;;5136831;27;20792;-61
2021/01/14 03:53:49;;;;;;;2.87;1.40;;;1.00;99.90;;;;;;5133322;27;20497;-64
2021/01/14 03:56:17;;;;;;;3.27;1.10;;;1.00;99.90;;;;;;5116315;28;20530;-62
2021/01/14 03:58:45;;;;;;;2.37;1.57;;;1.00;99.90;;;;;;5116859;28;20474;-62
2021/01/14 04:01:14;;;;;;;1.30;1.20;;;1.00;99.90;;;;;;5115152;28;20514;-63
2021/01/14 04:03:43;;;;;;;2.27;1.43;;;1.00;99.90;;;;;;5116812;28;20451;-61
2021/01/14 04:06:11;;;;;;;3.33;0.90;;;1.00;99.90;;;;;;5116021;28;20432;-61
2021/01/14 04:08:40;;;;;;;2.63;1.10;;;1.10;99.90;;;;;;5115999;28;20937;-60
2021/01/14 04:11:10;;;;;;;1.87;0.87;;;1.10;99.90;;;;;;5116432;28;20444;-60
2021/01/14 04:13:38;;;;;;;2.17;0.70;;;1.00;99.90;;;;;;5097861;28;20479;-60
2021/01/14 04:16:12;;;;;;;1.77;1.23;;;1.00;99.90;;;;;;5115247;28;20496;-61
2021/01/14 04:18:39;;;;;;;1.60;1.33;;;0.90;99.90;;;;;;5116483;28;20443;-61
2021/01/14 04:21:07;;;;;;;1.30;1.20;;;0.90;99.90;;;;;;5116285;28;20550;-61
2021/01/14 04:23:34;;;;;;;3.63;1.10;;;1.00;99.90;;;;;;5116519;28;20454;-60
2021/01/14 04:26:02;;;;;;;2.00;1.70;;;1.00;99.90;;;;;;5116114;28;20428;-61
2021/01/14 04:28:29;;;;;;;1.90;1.00;;;1.00;99.90;;;;;;5115914;28;20473;-61
2021/01/14 04:30:57;;;;;;;3.20;1.97;;;1.00;99.90;;;;;;5114399;28;20472;-61
2021/01/14 04:33:24;;;;;;;2.63;1.00;;;1.00;99.90;;;;;;5115525;28;20424;-60
2021/01/14 04:35:53;;;;;;;0.80;0.80;;;0.90;99.90;;;;;;5115447;28;20428;-61
2021/01/14 04:38:22;;;;;;;1.30;0.93;;;0.90;99.90;;;;;;5115819;28;20423;-61
2021/01/14 04:40:56;;;;;;;4.90;0.90;;;0.90;99.90;;;;;;5115959;28;20465;-61
2021/01/14 04:43:28;;;;;;;1.57;1.27;;;0.90;99.90;;;;;;5133683;28;20424;-61
2021/01/14 04:46:03;;;;;;;0.87;0.83;;;1.00;99.90;;;;;;5118000;28;20444;-61
2021/01/14 04:48:32;;;;;;;4.70;1.20;;;1.10;99.90;;;;;;5115244;28;20774;-61
2021/01/14 04:51:06;;;;;;;0.80;0.70;;;1.00;99.90;;;;;;5115479;28;21011;-62
2021/01/14 04:53:35;;;;;;;1.30;0.93;;;1.10;99.90;;;;;;5115998;27;20424;-61
2021/01/14 04:56:06;;;;;;;1.17;0.83;;;1.10;99.90;;;;;;5115193;28;20437;-61
2021/01/14 04:58:35;;;;;;;3.27;0.90;;;1.00;99.90;;;;;;5115198;28;20499;-61
2021/01/14 05:01:06;;;;;;;4.10;1.27;;;1.00;99.90;;;;;;5114951;28;20493;-61
2021/01/14 05:03:35;;;;;;;3.83;1.67;;;1.00;99.90;;;;;;5114812;28;20447;-60
2021/01/14 05:06:06;;;;;;;2.40;1.20;;;1.00;99.90;;;;;;5114695;28;20420;-62
2021/01/14 05:08:34;;;;;;;1.93;0.80;;;1.00;99.90;;;;;;5114625;28;20508;-61
2021/01/14 05:11:01;;;;;;;2.43;1.33;;;1.10;99.90;;;;;;5114788;28;20427;-62
2021/01/14 05:13:31;;;;;;;1.33;0.90;;;1.00;99.90;;;;;;5114789;28;20519;-61
2021/01/14 05:16:00;;;;;;;4.30;1.93;;;1.00;99.90;;;;;;5113289;28;20531;-61
2021/01/14 05:18:27;;;;;;;3.30;1.73;;;0.90;99.90;;;;;;5114934;28;20452;-61
2021/01/14 05:20:58;;;;;;;1.80;1.27;;;0.90;99.90;;;;;;5096052;28;20451;-64
2021/01/14 05:23:26;;;;;;;1.30;0.90;;;0.80;99.90;;;;;;5110063;28;20588;-61
2021/01/14 05:25:54;;;;;;;3.03;1.00;;;0.80;99.90;;;;;;5114839;28;20523;-61
2021/01/14 05:28:24;;;;;;;4.50;1.53;;;0.80;99.90;;;;;;5126652;28;20445;-62
2021/01/14 05:30:53;;;;;;;1.10;1.00;;;0.90;99.90;;;;;;5118465;28;20803;-61
2021/01/14 05:33:23;;;;;;;1.70;1.07;;;0.90;99.90;;;;;;5115237;28;20440;-60
2021/01/14 05:35:52;;;;;;;2.70;1.50;;;0.90;99.90;;;;;;5115014;28;20535;-60
2021/01/14 05:38:24;;;;;;;2.40;1.37;;;0.90;99.90;;;;;;5114882;28;20436;-61
2021/01/14 05:41:11;;;;;;;3.03;1.67;;;0.80;99.90;;;;;;5097250;28;20485;-60
2021/01/14 05:43:51;;;;;;;4.50;2.50;;;0.80;99.90;;;;;;5114079;28;20463;-62
2021/01/14 05:46:21;;;;;;;3.30;1.17;;;0.80;99.90;;;;;;5113268;28;20471;-61
2021/01/14 05:48:53;;;;;;;1.90;1.67;;;0.80;99.90;;;;;;5114464;28;20432;-61
2021/01/14 05:51:22;;;;;;;4.27;1.30;;;0.80;99.90;;;;;;5114494;28;20472;-61
2021/01/14 05:54:00;;;;;;;2.53;1.30;;;0.80;99.90;;;;;;5115550;27;20455;-61
2021/01/14 05:56:36;;;;;;;1.80;0.90;;;0.80;99.90;;;;;;5114623;28;20463;-61
2021/01/14 05:59:06;;;;;;;0.77;0.77;;;0.80;99.90;;;;;;5115023;28;20424;-61
2021/01/14 06:01:36;;;;;;;3.10;2.53;;;0.80;99.90;;;;;;5113911;28;21050;-61
2021/01/14 06:04:15;;;;;;;4.10;1.57;;;0.70;99.90;;;;;;5114928;28;20526;-61
2021/01/14 06:06:49;;;;;;;1.50;1.00;;;0.70;99.90;;;;;;5116301;28;20432;-61
2021/01/14 06:09:18;;;;;;;7.13;1.20;;;0.70;99.90;;;;;;5115334;28;20863;-60
2021/01/14 06:11:47;;;;;;;3.57;1.73;;;0.80;99.90;;;;;;5114993;28;20428;-64
2021/01/14 06:14:29;;;;;;;1.33;0.97;;;0.80;99.90;;;;;;5116584;28;20428;-61
2021/01/14 06:16:59;;;;;;;3.07;1.20;;;0.80;99.90;;;;;;5114496;28;20471;-61
2021/01/14 06:19:28;;;;;;;2.70;1.30;;;0.70;99.90;;;;;;5115673;28;20435;-60
2021/01/14 06:21:57;;;;;;;3.20;1.50;;;0.70;99.90;;;;;;5115108;28;20459;-60
2021/01/14 06:24:26;;;;;;;3.10;1.00;;;0.70;99.90;;;;;;5114563;28;20427;-61
2021/01/14 06:26:54;;;;;;;3.55;1.50;;;0.70;99.90;;;;;;5095258;28;20438;-61
2021/01/14 06:29:25;;;;;;;3.30;1.80;;;0.70;99.90;;;;;;5118690;28;20182;-60
2021/01/14 06:32:05;;;;;;;3.63;2.20;;;0.70;99.90;;;;;;5118125;28;20993;-61
2021/01/14 06:34:34;;;;;;;1.63;1.13;;;0.70;99.90;;;;;;5119307;28;20439;-62
2021/01/14 06:37:09;;;;;;;3.23;1.17;;;0.70;99.90;;;;;;5118328;28;20419;-61
2021/01/14 06:39:40;;;;;;;2.07;0.90;;;0.70;99.90;;;;;;5117992;28;20459;-62
2021/01/14 06:42:19;;;;;;;5.47;1.10;;;0.60;99.90;;;;;;5118075;28;20466;-62
2021/01/14 06:44:57;;;;;;;1.50;0.97;;;0.60;99.90;;;;;;5099616;28;20627;-61
2021/01/14 06:47:33;;;;;;;1.80;0.93;;;0.70;99.90;;;;;;5117890;28;20921;-63
2021/01/14 06:50:24;;;;;;;2.53;1.23;;;0.70;99.90;;;;;;5118641;28;20446;-61
2021/01/14 06:53:03;;;;;;;5.33;1.27;;;0.70;99.90;;;;;;5117866;28;20507;-61
2021/01/14 06:55:33;;;;;;;1.83;1.70;;;0.70;99.90;;;;;;5119225;27;20620;-62
2021/01/14 06:58:08;;;;;;;2.23;1.30;;;0.80;99.90;;;;;;5118566;28;20440;-61
2021/01/14 07:00:39;;;;;;;1.57;0.80;;;0.80;99.90;;;;;;5118078;28;20519;-61
2021/01/14 07:03:25;;;;;;;4.93;1.97;;;0.80;99.90;;;;;;5118951;28;20502;-63
2021/01/14 07:06:07;;;;;;;3.40;1.20;;;0.80;99.90;;;;;;5120704;28;20504;-61
2021/01/14 07:08:40;;;;;;;2.03;1.00;;;0.80;99.90;;;;;;5119429;28;20431;-62
2021/01/14 07:11:10;;;;;;;1.43;1.10;;;0.80;99.90;;;;;;5119772;28;20436;-61
2021/01/14 07:13:39;;;;;;;1.33;0.90;;;0.80;99.90;;;;;;5120577;28;20509;-61
2021/01/14 07:16:10;;;;;;;6.20;1.03;;;0.80;99.90;;;;;;5121889;28;21000;-62
2021/01/14 07:18:41;;;;;;;1.23;1.10;;;0.80;99.90;;;;;;5128850;28;20431;-62
2021/01/14 07:21:43;;;;;;;4.10;1.03;;;0.80;99.90;;;;;;5124153;28;20576;-62
2021/01/14 07:24:18;;;;;;;12.40;2.23;;;0.80;99.90;;;;;;5045868;28;20466;-61
2021/01/14 07:26:46;;;;;;;1.60;1.07;;;1.00;99.90;;;;;;5038886;28;20514;-61
2021/01/14 07:29:15;;;;;;;2.50;0.97;;;1.10;99.90;;;;;;5037874;28;20459;-62
2021/01/14 07:32:07;;;;;;;1.57;1.47;;;1.10;99.90;;;;;;5059146;28;20479;-62
2021/01/14 07:34:44;;;;;;;2.10;0.90;;;1.00;99.90;;;;;;5072107;28;20430;-62
2021/01/14 07:37:14;;;;;;;1.70;1.10;;;1.00;99.90;;;;;;5021993;28;20445;-61
2021/01/14 07:39:49;;;;;;;3.40;1.27;;;1.00;99.90;;;;;;5037173;28;20431;-61
2021/01/14 07:42:24;;;;;;;3.07;1.17;;;1.00;99.90;;;;;;5054128;28;20473;-62
2021/01/14 07:44:54;;;;;;;4.20;1.20;;;1.00;99.90;;;;;;5039003;28;20433;-61
2021/01/14 07:47:25;;;;;;;1.43;1.00;;;1.00;99.90;;;;;;5053112;28;20486;-62
2021/01/14 07:49:53;;;;;;;1.67;1.20;;;1.00;99.90;;;;;;5055092;28;20441;-61
2021/01/14 07:52:30;;;;;;;3.97;1.00;;;1.00;99.90;;;;;;5054717;28;20501;-61
2021/01/14 07:54:58;;;;;;;2.93;1.10;;;1.00;99.90;;;;;;5085567;27;20816;-61
2021/01/14 07:57:28;;;;;;;5.00;1.50;;;1.00;99.90;;;;;;5116781;28;20437;-63
2021/01/14 07:59:58;;;;;;;4.17;1.93;;;0.90;99.90;;;;;;5117293;28;20428;-61
2021/01/14 08:02:25;;;;;;;2.20;1.50;;;0.90;99.90;;;;;;5108743;28;20480;-61
2021/01/14 08:04:59;;;;;;;3.33;1.43;;;0.80;99.90;;;;;;5109425;28;20495;-61
2021/01/14 08:07:28;;;;;;;4.73;1.53;;;0.80;99.90;;;;;;5108477;28;20456;-61
2021/01/14 08:09:58;;;;;;;1.53;1.37;;;0.90;99.90;;;;;;5108515;28;20462;-61
2021/01/14 08:12:32;;;;;;;2.10;0.93;;;0.90;99.90;;;;;;5090379;28;20463;-61
2021/01/14 08:15:02;;;;;;;1.73;1.43;;;0.90;99.90;;;;;;5109373;28;20519;-61
2021/01/14 08:17:30;;;;;;;3.20;1.60;;;1.00;99.90;;;;;;5107491;28;20483;-61
2021/01/14 08:19:58;;;;;;;2.80;1.53;;;1.10;99.90;;;;;;5109454;28;20463;-62
2021/01/14 08:22:26;;;;;;;1.47;1.37;;;1.20;99.90;;;;;;5107656;28;20839;-62
2021/01/14 08:24:55;;;;;;;3.20;1.57;;;1.20;99.90;;;;;;5108052;28;21642;-61
2021/01/14 08:27:31;;;;;;;1.90;1.10;;;1.20;99.90;;;;;;5108258;28;20540;-61
2021/01/14 08:30:00;;;;;;;2.93;1.50;;;1.40;99.90;;;;;;5108520;28;20463;-61
2021/01/14 08:32:42;;;;;;;3.00;1.73;;;1.30;99.90;;;;;;5089053;28;20467;-62
2021/01/14 08:35:31;;;;;;;4.80;1.50;;;1.30;99.90;;;;;;5107787;28;20494;-61
2021/01/14 08:38:02;;;;;;;2.20;1.43;;;1.30;99.90;;;;;;5107782;28;20464;-61
2021/01/14 08:40:32;;;;;;;2.03;1.40;;;1.20;99.90;;;;;;5108116;28;20481;-62
2021/01/14 08:43:04;;;;;;;4.37;1.40;;;1.30;99.90;;;;;;5107569;28;20465;-61
2021/01/14 08:45:34;;;;;;;2.23;1.57;;;1.30;99.90;;;;;;5108002;28;20455;-61
2021/01/14 08:48:07;;;;;;;2.03;1.20;;;1.30;99.90;;;;;;5107730;28;20472;-61
2021/01/14 08:50:51;;;;;;;6.43;1.47;;;1.40;99.90;;;;;;5107966;28;21051;-61
2021/01/14 08:53:32;;;;;;;2.00;1.20;;;1.40;99.90;;;;;;5089473;28;20466;-61
2021/01/14 08:56:02;;;;;;;5.57;1.70;;;1.40;99.90;;;;;;5109210;27;20467;-61
2021/01/14 08:58:42;;;;;;;2.20;1.37;;;1.50;99.90;;;;;;5108484;28;20525;-61
2021/01/14 09:01:15;;;;;;;2.70;1.20;;;1.50;99.90;;;;;;5106561;28;20956;-61
2021/01/14 09:03:45;;;;;;;5.60;1.63;;;1.50;99.90;;;;;;5108194;28;20498;-62
2021/01/14 09:06:13;;;;;;;1.63;1.30;;;1.50;99.90;;;;;;5120279;28;20489;-61
2021/01/14 09:08:41;;;;;;;2.20;1.50;;;1.50;99.90;;;;;;5111005;28;20456;-62
2021/01/14 09:11:09;;;;;;;2.40;1.50;;;1.50;99.90;;;;;;5108298;28;20516;-62
2021/01/14 09:13:36;;;;;;;2.67;1.43;;;1.60;99.90;;;;;;5107713;28;20455;-61
2021/01/14 09:16:10;;;;;;;1.80;1.57;;;1.70;99.90;;;;;;5106069;28;20483;-61
2021/01/14 09:18:40;;;;;;;5.13;1.60;;;1.60;99.90;;;;;;5107347;28;20932;-61
2021/01/14 09:21:08;;;;;;;1.90;1.77;;;1.60;99.90;;;;;;5107430;28;20514;-61
2021/01/14 09:23:36;;;;;;;4.30;2.10;;;1.70;99.90;;;;;;5107176;28;20575;-61
2021/01/14 09:26:10;;;;;;;2.30;2.00;;;1.70;99.90;;;;;;5107271;28;20491;-61
2021/01/14 09:28:38;;;;;;;5.90;1.53;;;1.70;99.90;;;;;;5106449;28;20452;-61
2021/01/14 09:31:07;;;;;;;1.90;1.53;;;1.70;99.90;;;;;;5087263;28;20577;-61
2021/01/14 09:33:36;;;;;;;1.60;1.30;;;1.60;99.90;;;;;;5106809;28;20540;-62
2021/01/14 09:36:10;;;;;;;2.50;2.07;;;1.50;99.90;;;;;;5106506;28;20517;-61
2021/01/14 09:38:45;;;;;;;5.57;1.70;;;1.40;99.90;;;;;;5106730;28;20459;-62
2021/01/14 09:41:23;;;;;;;2.37;2.10;;;1.50;99.90;;;;;;5106487;28;20794;-61
2021/01/14 09:43:55;;;;;;;2.20;1.80;;;1.50;99.90;;;;;;5106745;28;20463;-61
2021/01/14 09:46:29;;;;;;;4.77;2.50;;;1.30;99.90;;;;;;5106673;28;20478;-61
2021/01/14 09:48:59;;;;;;;5.70;1.90;;;1.30;99.90;;;;;;5107050;28;20459;-61
2021/01/14 09:51:26;;;;;;;3.67;1.70;;;1.40;99.90;;;;;;5106706;28;20464;-61
2021/01/14 09:53:54;;;;;;;3.50;1.93;;;1.50;99.90;;;;;;5106535;28;20551;-61
2021/01/14 09:56:30;;;;;;;10.87;3.83;;;1.60;99.90;;;;;;5107455;28;21009;-61
2021/01/14 09:59:03;;;;;;;3.57;2.00;;;1.70;99.90;;;;;;5107024;28;20567;-61
2021/01/14 10:01:35;;;;;;;2.73;2.00;;;1.90;99.90;;;;;;5110798;28;21555;-61
2021/01/14 10:04:07;;;;;;;4.97;2.70;;;2.10;99.90;;;;;;5106790;28;20544;-61
2021/01/14 10:06:41;;;;;;;4.63;1.93;;;2.40;99.90;;;;;;5106208;28;20488;-61
2021/01/14 10:09:11;;;;;;;2.87;1.50;;;2.70;99.90;;;;;;5106521;28;20470;-62
2021/01/14 10:11:39;;;;;;;3.83;2.20;;;3.00;99.90;;;;;;5106505;28;20452;-61
2021/01/14 10:14:16;;;;;;;3.87;1.80;;;3.20;99.90;;;;;;5105786;28;20452;-61
2021/01/14 10:16:44;;;;;;;4.03;1.70;;;3.20;99.90;;;;;;5086700;28;20499;-62
2021/01/14 10:19:15;;;;;;;1.90;1.70;;;2.90;99.90;;;;;;5106081;28;20475;-61
2021/01/14 10:21:43;;;;;;;3.40;2.07;;;2.70;99.90;;;;;;5106223;28;20514;-61
2021/01/14 10:24:22;;;;;;;3.30;1.57;;;2.50;99.90;;;;;;5105675;28;20460;-61
2021/01/14 10:26:50;;;;;;;3.80;1.80;;;2.30;99.90;;;;;;5105580;28;20451;-61
2021/01/14 10:29:39;;;;;;;4.93;1.50;;;2.20;99.90;;;;;;5106056;28;21001;-61
2021/01/14 10:32:08;;;;;;;3.63;2.43;;;2.20;99.90;;;;;;5106220;28;20512;-61
2021/01/14 10:34:44;;;;;;;5.87;2.33;;;2.30;99.90;;;;;;5106154;28;20462;-61
2021/01/14 10:37:23;;;;;;;5.13;2.57;;;2.30;99.90;;;;;;5106670;28;20489;-61
2021/01/14 10:39:51;;;;;;;2.80;2.30;;;2.40;99.90;;;;;;5107288;28;20468;-62
2021/01/14 10:42:33;;;;;;;2.00;1.80;;;2.50;99.90;;;;;;5105692;28;20555;-61
2021/01/14 10:45:26;;;;;;;3.40;1.90;;;2.60;99.90;;;;;;5105813;28;20618;-61
2021/01/14 10:48:13;;;;;;;3.47;2.00;;;2.40;99.90;;;;;;5104663;28;20567;-61
2021/01/14 10:50:46;;;;;;;3.50;2.30;;;2.20;99.90;;;;;;5105626;28;20528;-61
2021/01/14 10:53:23;;;;;;;4.43;1.83;;;2.00;99.90;;;;;;5108295;28;20923;-61
2021/01/14 10:56:06;;;;;;;9.87;3.00;;;2.00;99.90;;;;;;5112791;28;20531;-61
2021/01/14 10:58:38;;;;;;;2.70;2.30;;;1.80;99.90;;;;;;5125612;28;20470;-61
2021/01/14 11:01:16;;;;;;;4.13;2.00;;;2.00;99.90;;;;;;5124940;28;20515;-61
2021/01/14 11:06:37;;;;;;;2.87;2.10;;;1.90;99.90;;;;;;5127784;28;20454;-61
2021/01/14 11:09:06;;;;;;;3.93;2.40;;;2.00;99.90;;;;;;5127184;28;20496;-61
2021/01/14 11:11:34;;;;;;;5.87;1.87;;;2.00;99.90;;;;;;5126597;28;20490;-61
2021/01/14 11:14:03;;;;;;;2.80;2.03;;;1.90;99.90;;;;;;5126386;27;20458;-61
2021/01/14 11:16:31;;;;;;;5.10;4.60;;;2.00;99.90;;;;;;5133113;27;20466;-61
2021/01/14 11:19:00;;;;;;;2.40;2.20;;;2.10;99.90;;;;;;5134125;27;20445;-62
2021/01/14 11:21:29;;;;;;;7.43;2.47;;;2.20;99.90;;;;;;5133414;27;20570;-61
2021/01/14 11:23:58;;;;;;;2.80;1.90;;;2.20;99.90;;;;;;5134464;27;20458;-61
2021/01/14 11:26:26;;;;;;;3.20;2.00;;;2.10;99.90;;;;;;5133424;27;20466;-61
2021/01/14 11:28:53;;;;;;;5.43;2.43;;;2.20;99.90;;;;;;5135139;27;20461;-61
2021/01/14 11:31:24;;;;;;;4.50;2.70;;;2.30;99.90;;;;;;5097720;28;20478;-62
2021/01/14 11:33:52;;;;;;;3.03;2.20;;;2.40;99.90;;;;;;5112107;28;20459;-61
2021/01/14 11:36:21;;;;;;;3.40;2.60;;;2.40;99.90;;;;;;5109816;28;20468;-61
2021/01/14 11:38:49;;;;;;;2.40;2.20;;;2.50;99.90;;;;;;5109236;28;20455;-61
2021/01/14 11:41:18;;;;;;;5.10;2.57;;;2.50;99.90;;;;;;5109236;28;20536;-61
2021/01/14 11:43:45;;;;;;;2.70;2.10;;;2.60;99.90;;;;;;5110277;28;20462;-62
2021/01/14 11:46:14;;;;;;;3.30;2.50;;;2.70;99.90;;;;;;5117792;27;20963;-61
2021/01/14 11:48:44;;;;;;;3.77;2.50;;;2.60;99.90;;;;;;5127931;27;20481;-61
2021/01/14 11:51:12;;;;;;;5.30;2.83;;;2.50;99.90;;;;;;5130927;27;20527;-61
2021/01/14 11:53:39;;;;;;;3.03;2.33;;;2.40;99.90;;;;;;5132682;27;20451;-61
2021/01/14 11:56:09;;;;;;;3.43;2.23;;;2.30;99.90;;;;;;5148067;27;20539;-61
2021/01/14 11:58:36;;;;;;;4.70;2.90;;;2.20;99.90;;;;;;5138068;27;20458;-62
2021/01/14 12:01:04;;;;;;;6.90;3.50;;;2.10;99.90;;;;;;5127231;27;21700;-61
2021/01/14 12:03:33;;;;;;;8.20;3.30;;;2.10;99.90;;;;;;5128727;27;20462;-61
2021/01/14 12:06:02;;;;;;;4.80;3.27;;;2.10;99.90;;;;;;5109900;27;20961;-61
2021/01/14 12:08:29;;;;;;;7.10;3.00;;;2.00;99.90;;;;;;5109602;27;20454;-61
2021/01/14 12:10:57;;;;;;;3.37;2.43;;;1.90;99.90;;;;;;5128246;27;20465;-61
2021/01/14 12:13:25;;;;;;;3.30;2.70;;;1.80;99.90;;;;;;5127564;27;20454;-62
2021/01/14 12:15:53;;;;;;;6.33;2.83;;;1.70;99.90;;;;;;5127118;27;20470;-61
2021/01/14 12:18:21;;;;;;;3.50;2.27;;;1.70;99.90;;;;;;5128839;27;20462;-61
2021/01/14 12:20:49;;;;;;;4.60;3.00;;;1.70;99.90;;;;;;5128798;27;20481;-61
2021/01/14 12:23:17;;;;;;;6.23;3.20;;;1.70;99.90;;;;;;5128434;27;21028;-62
2021/01/14 12:25:44;;;;;;;4.10;3.70;;;1.80;99.90;;;;;;5128169;27;21049;-62
2021/01/14 12:28:11;;;;;;;5.83;3.27;;;1.90;99.90;;;;;;5128829;27;20461;-60
2021/01/14 12:31:03;;;;;;;3.53;2.67;;;1.80;99.90;;;;;;5127266;27;20867;-61
2021/01/14 12:33:31;;;;;;;3.30;2.10;;;2.00;99.90;;;;;;5128827;27;20523;-61
2021/01/14 12:35:59;;;;;;;4.67;2.50;;;2.10;99.90;;;;;;5110184;27;20509;-62
2021/01/14 12:38:27;;;;;;;3.80;2.40;;;2.10;99.90;;;;;;5131700;27;20447;-62
2021/01/14 12:40:54;;;;;;;4.73;2.20;;;2.00;99.90;;;;;;5118962;27;20463;-61
2021/01/14 12:43:27;;;;;;;4.80;3.10;;;2.00;99.90;;;;;;5134888;27;20967;-61
2021/01/14 12:45:55;;;;;;;3.83;2.90;;;2.00;99.90;;;;;;5108203;28;20455;-61
2021/01/14 12:48:22;;;;;;;3.50;2.30;;;2.00;99.90;;;;;;5107820;28;20474;-61
2021/01/14 12:50:50;;;;;;;3.47;2.33;;;2.00;99.90;;;;;;5107154;28;20459;-62
2021/01/14 12:53:17;;;;;;;4.17;3.00;;;2.10;99.90;;;;;;5107617;28;20551;-63
2021/01/14 12:55:48;;;;;;;6.80;3.80;;;2.10;99.90;;;;;;5107560;28;20482;-61
2021/01/14 12:58:16;;;;;;;6.60;3.03;;;2.00;99.90;;;;;;5107224;28;20513;-61
2021/01/14 13:00:46;;;;;;;2.53;2.30;;;2.00;99.90;;;;;;5112744;27;20558;-62
2021/01/14 13:03:13;;;;;;;3.30;3.00;;;1.90;99.90;;;;;;5127330;27;20490;-61
2021/01/14 13:05:51;;;;;;;7.00;3.13;;;2.00;99.90;;;;;;5128137;27;20469;-62
2021/01/14 13:08:19;;;;;;;5.07;2.60;;;2.10;99.90;;;;;;5127036;27;20976;-62
2021/01/14 13:10:46;;;;;;;5.93;2.87;;;2.10;99.90;;;;;;5127747;27;20547;-61
2021/01/14 13:13:14;;;;;;;4.97;3.40;;;2.10;99.90;;;;;;5127671;27;20563;-61
2021/01/14 13:15:42;;;;;;;4.03;2.87;;;2.00;99.90;;;;;;5127220;27;20474;-61
2021/01/14 13:18:10;;;;;;;4.43;3.20;;;2.10;99.90;;;;;;5126630;27;20470;-62
2021/01/14 13:20:39;;;;;;;5.67;2.93;;;2.10;99.90;;;;;;5108951;27;20495;-62
2021/01/14 13:23:07;;;;;;;4.00;2.77;;;2.10;99.90;;;;;;5108423;27;20486;-61